createdAt,value
2022-08-17T00:00:34.356Z,49.70
2022-08-17T00:03:10.396Z,50.13
2022-08-17T00:05:44.179Z,50.70
2022-08-17T00:08:17.915Z,51.01
2022-08-17T00:10:46.375Z,50.45
2022-08-17T00:13:21.366Z,50.44
2022-08-17T00:15:51.700Z,50.73
2022-08-17T00:18:58.178Z,50.42
2022-08-17T00:21:10.831Z,49.53
2022-08-17T00:23:44.426Z,50.32
2022-08-17T00:26:43.742Z,50.56
2022-08-17T00:29:09.170Z,50.83
2022-08-17T00:31:37.099Z,50.64
2022-08-17T00:34:05.213Z,51.03
2022-08-17T00:36:32.985Z,51.68
2022-08-17T00:39:02.910Z,51.23
2022-08-17T00:41:30.983Z,51.30
2022-08-17T00:44:02.432Z,51.16
2022-08-17T00:46:37.235Z,51.77
2022-08-17T00:49:06.591Z,51.08
2022-08-17T00:51:56.733Z,51.54
2022-08-17T00:54:29.136Z,51.15
2022-08-17T00:57:07.326Z,51.53
2022-08-17T00:59:38.720Z,50.67
2022-08-17T01:02:09.662Z,51.85
2022-08-17T01:04:37.794Z,51.85
2022-08-17T01:07:06.055Z,50.67
2022-08-17T01:09:36.252Z,50.34
2022-08-17T01:12:06.962Z,50.39
2022-08-17T01:14:39.329Z,50.31
2022-08-17T01:17:07.438Z,50.51
2022-08-17T01:19:39.373Z,51.58
2022-08-17T01:22:14.355Z,52.72
2022-08-17T01:24:47.748Z,52.84
2022-08-17T01:27:16.291Z,52.50
2022-08-17T01:29:50.149Z,52.73
2022-08-17T01:32:18.976Z,52.99
2022-08-17T01:34:50.106Z,53.25
2022-08-17T01:37:24.304Z,52.70
2022-08-17T01:39:59.935Z,53.70
2022-08-17T01:42:42.339Z,51.75
2022-08-17T01:45:14.965Z,51.75
2022-08-17T01:47:42.757Z,51.88
2022-08-17T01:50:15.822Z,52.16
2022-08-17T01:52:45.837Z,52.84
2022-08-17T01:55:16.368Z,53.26
2022-08-17T01:57:45.606Z,52.41
2022-08-17T02:00:13.767Z,51.21
2022-08-17T02:02:45.922Z,52.62
2022-08-17T02:05:14.420Z,52.78
2022-08-17T02:07:59.334Z,52.02
2022-08-17T02:10:33.930Z,51.41
2022-08-17T02:13:04.232Z,52.08
2022-08-17T02:15:32.334Z,52.63
2022-08-17T02:17:59.890Z,52.73
2022-08-17T02:20:41.778Z,52.87
2022-08-17T02:23:11.962Z,53.54
2022-08-17T02:25:40.634Z,52.60
2022-08-17T02:28:08.129Z,51.77
2022-08-17T02:31:01.155Z,51.90
2022-08-17T02:33:23.563Z,52.14
2022-08-17T02:36:10.796Z,53.93
2022-08-17T02:38:39.863Z,53.43
2022-08-17T02:41:07.362Z,54.82
2022-08-17T02:43:35.005Z,55.29
2022-08-17T02:46:02.764Z,54.74
2022-08-17T02:48:32.963Z,54.26
2022-08-17T02:51:00.840Z,53.27
2022-08-17T02:53:33.683Z,52.95
2022-08-17T02:56:04.233Z,52.53
2022-08-17T02:58:34.920Z,52.79
2022-08-17T03:01:06.101Z,54.06
2022-08-17T03:03:35.049Z,55.63
2022-08-17T03:06:03.354Z,55.72
2022-08-17T03:08:31.011Z,55.60
2022-08-17T03:10:58.707Z,55.41
2022-08-17T03:13:27.254Z,54.45
2022-08-17T03:15:54.695Z,56.19
2022-08-17T03:18:25.595Z,56.91
2022-08-17T03:21:01.476Z,56.98
2022-08-17T03:23:29.475Z,56.65
2022-08-17T03:25:58.274Z,55.95
2022-08-17T03:28:26.242Z,55.43
2022-08-17T03:30:54.384Z,54.71
2022-08-17T03:33:22.382Z,54.15
2022-08-17T03:35:50.083Z,54.33
2022-08-17T03:38:18.290Z,54.13
2022-08-17T03:40:56.792Z,54.14
2022-08-17T03:43:32.102Z,55.34
2022-08-17T03:46:27.823Z,54.91
2022-08-17T03:49:22.672Z,55.12
2022-08-17T03:52:08.745Z,56.00
2022-08-17T03:54:55.492Z,56.94
2022-08-17T03:57:23.264Z,57.15
2022-08-17T03:59:51.123Z,57.78
2022-08-17T04:02:22.749Z,56.55
2022-08-17T04:04:51.288Z,56.33
2022-08-17T04:07:20.429Z,56.89
2022-08-17T04:09:47.961Z,57.56
2022-08-17T04:12:18.371Z,58.44
2022-08-17T04:14:52.609Z,58.69
2022-08-17T04:17:27.982Z,58.63
2022-08-17T04:19:56.086Z,58.93
2022-08-17T04:22:33.293Z,57.48
2022-08-17T04:25:09.161Z,56.46
2022-08-17T04:27:42.900Z,57.16
2022-08-17T04:30:11.037Z,55.54
2022-08-17T04:33:09.820Z,54.99
2022-08-17T04:35:40.847Z,54.04
2022-08-17T04:38:13.625Z,54.56
2022-08-17T04:40:59.684Z,54.42
2022-08-17T04:43:28.542Z,53.97
2022-08-17T04:46:02.645Z,53.94
2022-08-17T04:48:41.018Z,54.52
2022-08-17T04:51:18.321Z,54.24
2022-08-17T04:53:51.077Z,54.52
2022-08-17T04:56:23.750Z,54.52
2022-08-17T04:58:56.585Z,54.41
2022-08-17T05:01:25.940Z,54.89
2022-08-17T05:03:59.438Z,55.08
2022-08-17T05:06:28.458Z,54.66
2022-08-17T05:08:57.269Z,54.50
2022-08-17T05:11:26.229Z,54.05
2022-08-17T05:13:55.051Z,54.64
2022-08-17T05:16:25.043Z,53.96
2022-08-17T05:18:53.092Z,52.74
2022-08-17T05:21:22.602Z,52.36
2022-08-17T05:23:56.247Z,52.20
2022-08-17T05:26:27.360Z,52.63
2022-08-17T05:28:59.454Z,52.17
2022-08-17T05:31:28.844Z,51.57
2022-08-17T05:33:56.777Z,51.18
2022-08-17T05:36:43.093Z,51.29
2022-08-17T05:39:16.507Z,51.12
2022-08-17T05:41:47.711Z,51.52
2022-08-17T05:44:16.375Z,51.19
2022-08-17T05:46:48.890Z,51.09
2022-08-17T05:49:21.572Z,50.84
2022-08-17T05:52:29.466Z,50.15
2022-08-17T05:55:06.020Z,50.42
2022-08-17T05:57:53.258Z,50.19
2022-08-17T06:00:30.665Z,50.08
2022-08-17T06:03:17.478Z,49.64
2022-08-17T06:06:20.360Z,49.45
2022-08-17T06:09:21.206Z,49.24
2022-08-17T06:12:31.055Z,48.82
2022-08-17T06:15:09.668Z,48.48
2022-08-17T06:17:37.767Z,48.59
2022-08-17T06:20:15.816Z,48.44
2022-08-17T06:22:50.717Z,48.57
2022-08-17T06:25:27.652Z,48.22
2022-08-17T06:28:05.924Z,47.74
2022-08-17T06:31:00.560Z,47.34
2022-08-17T06:33:36.541Z,47.26
2022-08-17T06:36:23.657Z,47.74
2022-08-17T06:39:15.626Z,46.67
2022-08-17T06:41:49.783Z,46.71
2022-08-17T06:44:49.992Z,46.67
2022-08-17T06:47:15.745Z,46.29
2022-08-17T06:50:35.176Z,45.25
2022-08-17T06:53:30.221Z,43.81
2022-08-17T06:56:08.903Z,42.59
2022-08-17T06:58:38.896Z,42.49
2022-08-17T07:01:15.422Z,42.82
2022-08-17T07:04:04.989Z,42.27
2022-08-17T07:06:47.383Z,42.64
2022-08-17T07:09:39.053Z,42.02
2022-08-17T07:12:20.154Z,41.65
2022-08-17T07:14:58.840Z,42.41
2022-08-17T07:17:47.029Z,42.86
2022-08-17T07:20:20.768Z,42.18
2022-08-17T07:23:02.078Z,41.89
2022-08-17T07:25:35.275Z,41.22
2022-08-17T07:28:07.031Z,41.09
2022-08-17T07:30:45.583Z,41.32
2022-08-17T07:33:20.189Z,41.22
2022-08-17T07:35:50.192Z,40.92
2022-08-17T07:38:25.913Z,40.54
2022-08-17T07:40:57.858Z,40.21
2022-08-17T07:43:29.800Z,39.22
2022-08-17T07:46:19.690Z,38.87
2022-08-17T07:48:50.190Z,38.65
2022-08-17T07:51:36.581Z,38.67
2022-08-17T07:54:25.252Z,38.22
2022-08-17T07:56:58.386Z,38.87
2022-08-17T07:59:34.828Z,37.96
2022-08-17T08:02:33.845Z,36.96
2022-08-17T08:05:13.365Z,36.82
2022-08-17T08:07:54.335Z,35.79
2022-08-17T08:10:38.498Z,35.96
2022-08-17T08:13:18.664Z,36.08
2022-08-17T08:16:12.385Z,34.98
2022-08-17T08:18:55.317Z,35.48
2022-08-17T08:21:43.451Z,35.78
2022-08-17T08:24:30.933Z,35.77
2022-08-17T08:27:36.608Z,35.27
2022-08-17T08:30:05.270Z,35.72
2022-08-17T08:32:42.920Z,35.36
2022-08-17T08:35:41.498Z,34.96
2022-08-17T08:38:12.236Z,33.14
2022-08-17T08:40:59.520Z,33.65
2022-08-17T08:43:32.372Z,33.84
2022-08-17T08:46:21.038Z,32.77
2022-08-17T08:49:11.917Z,32.33
2022-08-17T08:51:58.891Z,31.53
2022-08-17T08:54:38.957Z,31.04
2022-08-17T08:57:40.852Z,31.85
2022-08-17T09:00:18.251Z,32.87
2022-08-17T09:02:58.486Z,32.23
2022-08-17T09:05:54.167Z,31.05
2022-08-17T09:08:28.773Z,30.07
2022-08-17T09:11:11.178Z,28.87
2022-08-17T09:13:54.344Z,29.02
2022-08-17T09:16:33.241Z,29.47
2022-08-17T09:19:12.528Z,30.32
2022-08-17T09:21:48.543Z,30.36
2022-08-17T09:24:32.849Z,30.90
2022-08-17T09:27:22.698Z,29.92
2022-08-17T09:29:59.516Z,29.99
2022-08-17T09:32:44.109Z,29.74
2022-08-17T09:35:20.926Z,30.05
2022-08-17T09:38:07.317Z,28.41
2022-08-17T09:41:01.875Z,29.20
2022-08-17T09:43:49.863Z,28.68
2022-08-17T09:46:25.754Z,28.74
2022-08-17T09:49:25.278Z,29.03
2022-08-17T09:51:57.909Z,28.82
2022-08-17T09:54:40.356Z,28.35
2022-08-17T09:57:28.510Z,27.91
2022-08-17T10:00:31.714Z,28.12
2022-08-17T10:03:11.952Z,27.01
2022-08-17T10:06:06.977Z,28.16
2022-08-17T10:08:46.481Z,27.15
2022-08-17T10:11:51.570Z,27.57
2022-08-17T10:14:37.214Z,27.41
2022-08-17T10:17:25.350Z,28.37
2022-08-17T10:20:34.041Z,27.65
2022-08-17T10:23:26.417Z,27.37
2022-08-17T10:26:15.990Z,26.90
2022-08-17T10:29:12.862Z,27.78
2022-08-17T10:31:53.558Z,27.43
2022-08-17T10:34:42.890Z,28.07
2022-08-17T10:37:19.839Z,27.94
2022-08-17T10:40:23.674Z,27.36
2022-08-17T10:43:00.456Z,27.17
2022-08-17T10:45:40.737Z,26.56
2022-08-17T10:48:08.790Z,26.94
2022-08-17T10:51:00.252Z,26.73
2022-08-17T10:53:43.660Z,26.45
2022-08-17T10:56:14.362Z,28.13
2022-08-17T10:58:55.352Z,26.42
2022-08-17T11:01:58.355Z,25.75
2022-08-17T11:04:55.407Z,25.43
2022-08-17T11:07:43.822Z,27.30
2022-08-17T11:10:26.780Z,26.01
2022-08-17T11:13:06.442Z,27.80
2022-08-17T11:15:58.839Z,27.12
2022-08-17T11:18:36.661Z,26.22
2022-08-17T11:21:13.902Z,27.22
2022-08-17T11:24:02.857Z,27.23
2022-08-17T11:26:34.764Z,26.85
2022-08-17T11:29:09.893Z,28.36
2022-08-17T11:31:42.647Z,26.97
2022-08-17T11:34:21.727Z,26.68
2022-08-17T11:37:07.987Z,26.35
2022-08-17T11:39:47.655Z,25.91
2022-08-17T11:42:50.478Z,25.54
2022-08-17T11:45:43.431Z,25.56
2022-08-17T11:48:40.801Z,25.22
2022-08-17T11:51:26.955Z,25.40
2022-08-17T11:54:14.670Z,25.66
2022-08-17T11:56:44.106Z,25.86
2022-08-17T11:59:33.350Z,25.33
2022-08-17T12:02:02.168Z,25.42
2022-08-17T12:04:35.369Z,26.49
2022-08-17T12:07:19.703Z,24.79
2022-08-17T12:09:49.774Z,23.86
2022-08-17T12:12:20.276Z,23.83
2022-08-17T12:15:10.685Z,23.64
2022-08-17T12:17:42.964Z,22.87
2022-08-17T12:20:22.209Z,22.30
2022-08-17T12:22:54.966Z,22.10
2022-08-17T12:25:59.432Z,22.04
2022-08-17T12:28:30.095Z,22.11
2022-08-17T12:31:07.433Z,21.64
2022-08-17T12:33:36.331Z,21.13
2022-08-17T12:36:07.542Z,21.00
2022-08-17T12:38:37.660Z,20.37
2022-08-17T12:41:28.403Z,20.90
2022-08-17T12:44:02.157Z,20.73
2022-08-17T12:46:45.362Z,20.40
2022-08-17T12:49:24.293Z,20.58
2022-08-17T12:52:16.482Z,19.95
2022-08-17T12:55:07.501Z,19.63
2022-08-17T12:57:38.298Z,19.52
2022-08-17T13:00:08.817Z,18.95
2022-08-17T13:02:47.277Z,18.56
2022-08-17T13:05:23.166Z,18.61
2022-08-17T13:07:53.189Z,17.69
2022-08-17T13:10:32.815Z,18.42
2022-08-17T13:13:05.340Z,17.90
2022-08-17T13:15:50.872Z,18.80
2022-08-17T13:18:40.322Z,18.32
2022-08-17T13:21:30.578Z,18.47
2022-08-17T13:24:13.480Z,17.83
2022-08-17T13:27:08.005Z,16.75
2022-08-17T13:29:45.166Z,16.83
2022-08-17T13:32:23.169Z,17.36
2022-08-17T13:35:11.931Z,17.96
2022-08-17T13:37:57.820Z,16.70
2022-08-17T13:40:30.064Z,18.10
2022-08-17T13:42:58.457Z,16.89
2022-08-17T13:45:34.952Z,16.75
2022-08-17T13:48:20.620Z,17.15
2022-08-17T13:51:04.624Z,16.51
2022-08-17T13:53:37.946Z,16.34
2022-08-17T13:56:37.477Z,16.19
2022-08-17T13:59:53.622Z,16.93
2022-08-17T14:02:16.086Z,17.58
2022-08-17T14:04:45.561Z,18.24
2022-08-17T14:07:13.159Z,17.75
2022-08-17T14:09:46.309Z,17.90
2022-08-17T14:12:17.059Z,18.22
2022-08-17T14:14:45.371Z,18.25
2022-08-17T14:17:13.251Z,18.08
2022-08-17T14:19:41.352Z,18.25
2022-08-17T14:22:39.691Z,17.80
2022-08-17T14:25:10.353Z,18.31
2022-08-17T14:27:52.403Z,17.33
2022-08-17T14:30:23.465Z,17.24
2022-08-17T14:32:52.030Z,17.36
2022-08-17T14:35:22.612Z,17.11
2022-08-17T14:37:51.225Z,17.77
2022-08-17T14:40:20.820Z,18.10
2022-08-17T14:42:48.769Z,17.94
2022-08-17T14:45:27.015Z,18.51
2022-08-17T14:48:01.804Z,17.94
2022-08-17T14:50:29.603Z,18.01
2022-08-17T14:53:01.425Z,17.28
2022-08-17T14:55:30.639Z,18.09
2022-08-17T14:57:58.499Z,17.24
2022-08-17T15:00:26.976Z,18.14
2022-08-17T15:03:00.144Z,17.62
2022-08-17T15:05:33.913Z,16.96
2022-08-17T15:08:02.708Z,17.89
2022-08-17T15:10:30.729Z,17.29
2022-08-17T15:12:58.503Z,17.54
2022-08-17T15:15:26.753Z,17.58
2022-08-17T15:17:54.282Z,17.20
2022-08-17T15:20:28.019Z,17.71
2022-08-17T15:22:57.527Z,17.63
2022-08-17T15:25:27.758Z,17.60
2022-08-17T15:27:56.035Z,17.94
2022-08-17T15:30:25.782Z,18.64
2022-08-17T15:32:54.519Z,18.40
2022-08-17T15:35:27.141Z,18.84
2022-08-17T15:38:06.535Z,18.45
2022-08-17T15:40:40.148Z,18.22
2022-08-17T15:43:11.328Z,18.58
2022-08-17T15:45:39.290Z,18.29
2022-08-17T15:48:07.025Z,18.66
2022-08-17T15:50:34.933Z,18.80
2022-08-17T15:53:03.606Z,19.45
2022-08-17T15:55:31.825Z,19.00
2022-08-17T15:57:59.816Z,19.28
2022-08-17T16:00:29.243Z,19.93
2022-08-17T16:03:44.716Z,18.75
2022-08-17T16:05:47.889Z,19.44
2022-08-17T16:08:20.669Z,18.87
2022-08-17T16:10:50.147Z,19.04
2022-08-17T16:13:19.044Z,19.01
2022-08-17T16:15:57.142Z,19.24
2022-08-17T16:18:30.907Z,19.62
2022-08-17T16:21:26.781Z,19.68
2022-08-17T16:23:58.189Z,19.31
2022-08-17T16:26:26.695Z,19.31
2022-08-17T16:28:54.461Z,19.51
2022-08-17T16:31:23.966Z,19.76
2022-08-17T16:34:08.981Z,19.73
2022-08-17T16:36:39.371Z,19.49
2022-08-17T16:39:06.856Z,19.14
2022-08-17T16:41:43.312Z,19.63
2022-08-17T16:44:15.728Z,19.53
2022-08-17T16:46:45.838Z,20.45
2022-08-17T16:49:36.293Z,20.46
2022-08-17T16:52:03.317Z,20.61
2022-08-17T16:54:31.104Z,20.93
2022-08-17T16:56:58.881Z,20.90
2022-08-17T16:59:31.363Z,20.98
2022-08-17T17:02:11.394Z,20.94
2022-08-17T17:04:46.148Z,20.96
2022-08-17T17:07:36.419Z,21.29
2022-08-17T17:10:16.827Z,21.78
2022-08-17T17:13:01.273Z,22.19
2022-08-17T17:16:09.682Z,21.68
2022-08-17T17:18:56.523Z,22.79
2022-08-17T17:21:32.431Z,23.23
2022-08-17T17:24:05.143Z,23.95
2022-08-17T17:26:51.087Z,24.27
2022-08-17T17:29:24.872Z,25.09
2022-08-17T17:32:09.501Z,25.69
2022-08-17T17:34:38.475Z,25.97
2022-08-17T17:37:12.441Z,26.83
2022-08-17T17:39:46.562Z,26.85
2022-08-17T17:42:27.793Z,27.21
2022-08-17T17:45:14.386Z,27.24
2022-08-17T17:47:41.912Z,27.84
2022-08-17T17:50:13.080Z,27.92
2022-08-17T17:52:49.679Z,28.61
2022-08-17T17:55:40.086Z,28.00
2022-08-17T17:58:38.825Z,27.78
2022-08-17T18:01:22.707Z,29.26
2022-08-17T18:03:53.908Z,28.44
2022-08-17T18:07:00.359Z,28.54
2022-08-17T18:10:02.646Z,28.67
2022-08-17T18:12:37.282Z,29.67
2022-08-17T18:15:27.457Z,30.36
2022-08-17T18:18:17.223Z,30.30
2022-08-17T18:20:53.651Z,30.28
2022-08-17T18:23:27.614Z,30.18
2022-08-17T18:25:57.271Z,29.86
2022-08-17T18:28:39.862Z,31.14
2022-08-17T18:31:20.954Z,30.35
2022-08-17T18:33:51.439Z,29.97
2022-08-17T18:36:34.133Z,30.30
2022-08-17T18:39:18.221Z,30.61
2022-08-17T18:41:52.097Z,30.92
2022-08-17T18:44:55.058Z,30.71
2022-08-17T18:47:46.581Z,30.30
2022-08-17T18:50:27.280Z,30.24
2022-08-17T18:53:30.389Z,30.92
2022-08-17T18:56:25.393Z,30.12
2022-08-17T18:59:11.273Z,30.82
2022-08-17T19:01:52.350Z,31.07
2022-08-17T19:04:42.879Z,31.01
2022-08-17T19:07:23.301Z,31.34
2022-08-17T19:10:12.952Z,31.64
2022-08-17T19:13:12.522Z,31.96
2022-08-17T19:16:11.740Z,32.74
2022-08-17T19:18:40.528Z,33.15
2022-08-17T19:21:10.402Z,32.66
2022-08-17T19:23:53.403Z,31.73
2022-08-17T19:26:51.174Z,32.46
2022-08-17T19:29:25.777Z,32.08
2022-08-17T19:31:56.372Z,32.62
2022-08-17T19:34:33.307Z,32.68
2022-08-17T19:37:03.960Z,33.84
2022-08-17T19:40:24.497Z,34.06
2022-08-17T19:43:31.238Z,33.62
2022-08-17T19:46:19.123Z,34.00
2022-08-17T19:48:56.661Z,33.50
2022-08-17T19:51:42.425Z,33.95
2022-08-17T19:54:55.559Z,34.85
2022-08-17T19:57:44.506Z,33.98
2022-08-17T20:00:15.789Z,33.51
2022-08-17T20:02:49.713Z,34.92
2022-08-17T20:05:21.736Z,35.87
2022-08-17T20:08:01.156Z,34.45
2022-08-17T20:10:48.037Z,35.56
2022-08-17T20:13:33.926Z,35.80
2022-08-17T20:16:03.127Z,36.09
2022-08-17T20:18:33.872Z,36.43
2022-08-17T20:21:10.375Z,34.77
2022-08-17T20:23:59.613Z,36.16
2022-08-17T20:26:37.036Z,35.74
2022-08-17T20:29:13.920Z,35.22
2022-08-17T20:32:05.876Z,36.34
2022-08-17T20:34:38.113Z,37.58
2022-08-17T20:37:10.817Z,37.03
2022-08-17T20:39:49.936Z,37.77
2022-08-17T20:42:20.303Z,36.40
2022-08-17T20:45:03.941Z,36.22
2022-08-17T20:48:01.161Z,36.61
2022-08-17T20:50:37.939Z,36.36
2022-08-17T20:53:08.655Z,36.79
2022-08-17T20:55:51.372Z,36.90
2022-08-17T20:58:24.644Z,36.42
2022-08-17T21:00:59.165Z,36.52
2022-08-17T21:03:32.229Z,36.82
2022-08-17T21:06:20.189Z,37.10
2022-08-17T21:08:53.846Z,37.16
2022-08-17T21:11:57.134Z,37.39
2022-08-17T21:14:18.111Z,37.51
2022-08-17T21:17:31.128Z,36.55
2022-08-17T21:20:43.727Z,36.77
2022-08-17T21:23:24.236Z,38.54
2022-08-17T21:26:12.791Z,37.46
2022-08-17T21:29:00.253Z,38.10
2022-08-17T21:31:35.505Z,37.78
2022-08-17T21:34:17.531Z,38.16
2022-08-17T21:36:47.283Z,38.32
2022-08-17T21:39:17.497Z,38.45
2022-08-17T21:41:55.377Z,38.28
2022-08-17T21:44:34.362Z,38.68
2022-08-17T21:47:19.728Z,38.31
2022-08-17T21:49:49.488Z,38.75
2022-08-17T21:52:19.210Z,38.55
2022-08-17T21:55:00.389Z,39.97
2022-08-17T21:57:29.112Z,39.00
2022-08-17T21:59:59.677Z,38.91
2022-08-17T22:02:32.905Z,38.35
2022-08-17T22:05:05.252Z,38.14
2022-08-17T22:07:37.674Z,38.56
2022-08-17T22:10:08.024Z,38.84
2022-08-17T22:12:35.562Z,38.63
2022-08-17T22:15:06.171Z,38.74
2022-08-17T22:17:38.391Z,38.70
2022-08-17T22:20:16.925Z,40.27
2022-08-17T22:23:06.463Z,39.81
2022-08-17T22:25:39.090Z,38.67
2022-08-17T22:28:09.134Z,39.90
2022-08-17T22:30:41.537Z,39.01
2022-08-17T22:34:02.015Z,39.45
2022-08-17T22:36:34.784Z,39.04
2022-08-17T22:39:26.289Z,39.25
2022-08-17T22:41:59.487Z,39.00
2022-08-17T22:44:33.433Z,39.61
2022-08-17T22:47:11.299Z,39.65
2022-08-17T22:50:03.658Z,39.59
2022-08-17T22:53:00.610Z,39.81
2022-08-17T22:55:49.486Z,39.62
2022-08-17T22:58:38.067Z,40.20
2022-08-17T23:01:35.690Z,39.91
2022-08-17T23:04:07.759Z,40.74
2022-08-17T23:06:37.737Z,40.48
2022-08-17T23:09:06.787Z,40.87
2022-08-17T23:11:58.805Z,40.85
2022-08-17T23:14:31.721Z,40.79
2022-08-17T23:16:59.436Z,40.35
2022-08-17T23:19:28.403Z,40.26
2022-08-17T23:21:56.553Z,40.44
2022-08-17T23:24:38.088Z,40.01
2022-08-17T23:27:07.598Z,40.59
2022-08-17T23:29:35.540Z,40.54
2022-08-17T23:32:04.821Z,41.99
2022-08-17T23:34:33.069Z,41.83
2022-08-17T23:37:02.330Z,41.67
2022-08-17T23:39:30.297Z,41.44
2022-08-17T23:41:59.517Z,41.22
2022-08-17T23:44:28.771Z,41.67
2022-08-17T23:46:57.105Z,41.04
2022-08-17T23:49:25.347Z,40.68
2022-08-17T23:51:55.573Z,41.45
2022-08-17T23:54:28.387Z,41.15
2022-08-17T23:56:56.417Z,41.72
2022-08-17T23:59:23.935Z,41.88
